sensor_id;sensor_type;location;lat;lon;timestamp;temperature;humidity
68511;SHT31;55512;50.102;19.958;2023-08-20T00:00:35;25.01;64.09
68511;SHT31;55512;50.102;19.958;2023-08-20T00:03:11;25.02;64.03
68511;SHT31;55512;50.102;19.958;2023-08-20T00:05:39;25.02;64.06
68511;SHT31;55512;50.102;19.958;2023-08-20T00:08:06;25.00;64.09
68511;SHT31;55512;50.102;19.958;2023-08-20T00:10:32;24.99;64.15
68511;SHT31;55512;50.102;19.958;2023-08-20T00:12:58;24.91;64.29
68511;SHT31;55512;50.102;19.958;2023-08-20T00:15:24;24.82;64.49
68511;SHT31;55512;50.102;19.958;2023-08-20T00:17:52;24.78;64.60
68511;SHT31;55512;50.102;19.958;2023-08-20T00:20:20;24.75;64.66
68511;SHT31;55512;50.102;19.958;2023-08-20T00:22:46;24.77;64.69
68511;SHT31;55512;50.102;19.958;2023-08-20T00:25:13;24.73;64.79
68511;SHT31;55512;50.102;19.958;2023-08-20T00:27:40;24.68;64.91
68511;SHT31;55512;50.102;19.958;2023-08-20T00:30:07;24.67;64.99
68511;SHT31;55512;50.102;19.958;2023-08-20T00:32:37;24.67;65.03
68511;SHT31;55512;50.102;19.958;2023-08-20T00:35:03;24.65;65.09
68511;SHT31;55512;50.102;19.958;2023-08-20T00:37:29;24.62;65.18
68511;SHT31;55512;50.102;19.958;2023-08-20T00:39:56;24.62;65.22
68511;SHT31;55512;50.102;19.958;2023-08-20T00:42:22;24.70;64.93
68511;SHT31;55512;50.102;19.958;2023-08-20T00:44:50;24.55;65.34
68511;SHT31;55512;50.102;19.958;2023-08-20T00:47:16;24.57;65.26
68511;SHT31;55512;50.102;19.958;2023-08-20T00:49:44;24.50;65.41
68511;SHT31;55512;50.102;19.958;2023-08-20T00:52:12;24.45;65.52
68511;SHT31;55512;50.102;19.958;2023-08-20T00:54:41;24.43;65.53
68511;SHT31;55512;50.102;19.958;2023-08-20T00:57:09;24.45;65.51
68511;SHT31;55512;50.102;19.958;2023-08-20T00:59:34;24.47;65.50
68511;SHT31;55512;50.102;19.958;2023-08-20T01:02:01;24.46;65.51
68511;SHT31;55512;50.102;19.958;2023-08-20T01:04:28;24.41;65.62
68511;SHT31;55512;50.102;19.958;2023-08-20T01:10:01;24.35;65.85
68511;SHT31;55512;50.102;19.958;2023-08-20T01:12:59;24.31;65.87
68511;SHT31;55512;50.102;19.958;2023-08-20T01:15:26;24.26;65.93
68511;SHT31;55512;50.102;19.958;2023-08-20T01:17:51;24.17;66.11
68511;SHT31;55512;50.102;19.958;2023-08-20T01:20:17;24.16;66.16
68511;SHT31;55512;50.102;19.958;2023-08-20T01:30:57;23.88;66.92
68511;SHT31;55512;50.102;19.958;2023-08-20T01:33:25;23.82;67.08
68511;SHT31;55512;50.102;19.958;2023-08-20T01:35:52;23.77;67.16
68511;SHT31;55512;50.102;19.958;2023-08-20T01:38:20;23.75;67.29
68511;SHT31;55512;50.102;19.958;2023-08-20T01:40:46;23.71;67.39
68511;SHT31;55512;50.102;19.958;2023-08-20T01:43:13;23.64;67.57
68511;SHT31;55512;50.102;19.958;2023-08-20T01:45:38;23.55;67.77
68511;SHT31;55512;50.102;19.958;2023-08-20T01:48:04;23.49;67.92
68511;SHT31;55512;50.102;19.958;2023-08-20T01:50:30;23.52;67.87
68511;SHT31;55512;50.102;19.958;2023-08-20T01:52:57;23.53;67.92
68511;SHT31;55512;50.102;19.958;2023-08-20T01:55:23;23.44;68.19
68511;SHT31;55512;50.102;19.958;2023-08-20T01:57:48;23.44;68.25
68511;SHT31;55512;50.102;19.958;2023-08-20T02:00:14;23.44;68.38
68511;SHT31;55512;50.102;19.958;2023-08-20T02:02:39;23.47;68.39
68511;SHT31;55512;50.102;19.958;2023-08-20T02:05:05;23.52;68.37
68511;SHT31;55512;50.102;19.958;2023-08-20T02:07:31;23.51;68.49
68511;SHT31;55512;50.102;19.958;2023-08-20T02:09:57;23.50;68.55
68511;SHT31;55512;50.102;19.958;2023-08-20T02:12:22;23.49;68.65
68511;SHT31;55512;50.102;19.958;2023-08-20T02:14:47;23.47;68.63
68511;SHT31;55512;50.102;19.958;2023-08-20T02:17:13;23.43;68.72
68511;SHT31;55512;50.102;19.958;2023-08-20T02:19:39;23.40;68.81
68511;SHT31;55512;50.102;19.958;2023-08-20T02:22:04;23.38;68.87
68511;SHT31;55512;50.102;19.958;2023-08-20T02:24:30;23.37;68.90
68511;SHT31;55512;50.102;19.958;2023-08-20T02:26:55;23.40;68.76
68511;SHT31;55512;50.102;19.958;2023-08-20T02:29:21;23.39;68.74
68511;SHT31;55512;50.102;19.958;2023-08-20T02:31:46;23.42;68.64
68511;SHT31;55512;50.102;19.958;2023-08-20T02:34:12;23.36;68.76
68511;SHT31;55512;50.102;19.958;2023-08-20T02:36:37;23.36;68.80
68511;SHT31;55512;50.102;19.958;2023-08-20T02:39:03;23.34;68.83
68511;SHT31;55512;50.102;19.958;2023-08-20T02:41:35;23.33;68.81
68511;SHT31;55512;50.102;19.958;2023-08-20T02:44:01;23.36;68.76
68511;SHT31;55512;50.102;19.958;2023-08-20T02:46:28;23.34;68.76
68511;SHT31;55512;50.102;19.958;2023-08-20T02:48:54;23.28;68.83
68511;SHT31;55512;50.102;19.958;2023-08-20T02:51:19;23.24;68.91
68511;SHT31;55512;50.102;19.958;2023-08-20T02:53:44;23.18;68.97
68511;SHT31;55512;50.102;19.958;2023-08-20T02:56:10;23.15;69.06
68511;SHT31;55512;50.102;19.958;2023-08-20T02:58:35;23.14;69.10
68511;SHT31;55512;50.102;19.958;2023-08-20T03:01:01;23.10;69.15
68511;SHT31;55512;50.102;19.958;2023-08-20T03:03:26;23.10;69.20
68511;SHT31;55512;50.102;19.958;2023-08-20T03:05:52;23.16;68.99
68511;SHT31;55512;50.102;19.958;2023-08-20T03:08:18;23.11;69.13
68511;SHT31;55512;50.102;19.958;2023-08-20T03:10:43;23.09;69.20
68511;SHT31;55512;50.102;19.958;2023-08-20T03:13:09;23.12;69.20
68511;SHT31;55512;50.102;19.958;2023-08-20T03:15:34;23.14;69.13
68511;SHT31;55512;50.102;19.958;2023-08-20T03:17:59;23.16;69.09
68511;SHT31;55512;50.102;19.958;2023-08-20T03:20:25;23.13;69.16
68511;SHT31;55512;50.102;19.958;2023-08-20T03:22:51;23.07;69.27
68511;SHT31;55512;50.102;19.958;2023-08-20T03:25:16;23.06;69.24
68511;SHT31;55512;50.102;19.958;2023-08-20T03:27:42;23.04;69.24
68511;SHT31;55512;50.102;19.958;2023-08-20T03:30:07;23.07;69.17
68511;SHT31;55512;50.102;19.958;2023-08-20T03:32:33;23.10;69.05
68511;SHT31;55512;50.102;19.958;2023-08-20T03:34:59;23.13;68.98
68511;SHT31;55512;50.102;19.958;2023-08-20T03:37:25;23.17;68.79
68511;SHT31;55512;50.102;19.958;2023-08-20T03:39:51;23.21;68.61
68511;SHT31;55512;50.102;19.958;2023-08-20T03:42:17;23.19;68.60
68511;SHT31;55512;50.102;19.958;2023-08-20T03:44:42;23.17;68.58
68511;SHT31;55512;50.102;19.958;2023-08-20T03:47:08;23.18;68.50
68511;SHT31;55512;50.102;19.958;2023-08-20T03:49:34;23.18;68.47
68511;SHT31;55512;50.102;19.958;2023-08-20T03:51:59;23.18;68.41
68511;SHT31;55512;50.102;19.958;2023-08-20T03:54:27;23.18;68.49
68511;SHT31;55512;50.102;19.958;2023-08-20T03:56:54;23.17;68.52
68511;SHT31;55512;50.102;19.958;2023-08-20T03:59:20;23.14;68.63
68511;SHT31;55512;50.102;19.958;2023-08-20T04:01:45;23.14;68.58
68511;SHT31;55512;50.102;19.958;2023-08-20T04:04:11;23.06;68.78
68511;SHT31;55512;50.102;19.958;2023-08-20T04:06:36;23.07;68.74
68511;SHT31;55512;50.102;19.958;2023-08-20T04:09:01;23.07;68.82
68511;SHT31;55512;50.102;19.958;2023-08-20T04:11:27;23.08;68.79
68511;SHT31;55512;50.102;19.958;2023-08-20T04:13:53;23.11;68.80
68511;SHT31;55512;50.102;19.958;2023-08-20T04:16:18;23.13;68.76
68511;SHT31;55512;50.102;19.958;2023-08-20T04:18:44;23.15;68.78
68511;SHT31;55512;50.102;19.958;2023-08-20T04:21:09;23.17;68.82
68511;SHT31;55512;50.102;19.958;2023-08-20T04:23:34;23.19;68.91
68511;SHT31;55512;50.102;19.958;2023-08-20T04:26:00;23.20;68.91
68511;SHT31;55512;50.102;19.958;2023-08-20T04:28:25;23.17;69.02
68511;SHT31;55512;50.102;19.958;2023-08-20T04:30:54;23.22;68.92
68511;SHT31;55512;50.102;19.958;2023-08-20T04:33:20;23.26;68.88
68511;SHT31;55512;50.102;19.958;2023-08-20T04:35:46;23.26;68.85
68511;SHT31;55512;50.102;19.958;2023-08-20T04:38:15;23.28;68.84
68511;SHT31;55512;50.102;19.958;2023-08-20T04:40:40;23.31;68.86
68511;SHT31;55512;50.102;19.958;2023-08-20T04:43:06;23.33;68.90
68511;SHT31;55512;50.102;19.958;2023-08-20T04:45:31;23.38;68.77
68511;SHT31;55512;50.102;19.958;2023-08-20T04:47:57;23.41;68.74
68511;SHT31;55512;50.102;19.958;2023-08-20T04:50:22;23.42;68.74
68511;SHT31;55512;50.102;19.958;2023-08-20T04:52:47;23.48;68.69
68511;SHT31;55512;50.102;19.958;2023-08-20T04:55:13;23.50;68.72
68511;SHT31;55512;50.102;19.958;2023-08-20T04:57:40;23.55;68.73
68511;SHT31;55512;50.102;19.958;2023-08-20T05:00:06;23.60;68.66
68511;SHT31;55512;50.102;19.958;2023-08-20T05:02:32;23.53;68.94
68511;SHT31;55512;50.102;19.958;2023-08-20T05:04:58;23.64;68.62
68511;SHT31;55512;50.102;19.958;2023-08-20T05:07:23;23.70;68.51
68511;SHT31;55512;50.102;19.958;2023-08-20T05:09:49;23.74;68.48
68511;SHT31;55512;50.102;19.958;2023-08-20T05:12:15;23.81;68.38
68511;SHT31;55512;50.102;19.958;2023-08-20T05:14:40;23.86;68.34
68511;SHT31;55512;50.102;19.958;2023-08-20T05:17:05;23.94;68.26
68511;SHT31;55512;50.102;19.958;2023-08-20T05:19:31;23.99;68.16
68511;SHT31;55512;50.102;19.958;2023-08-20T05:21:56;24.04;68.10
68511;SHT31;55512;50.102;19.958;2023-08-20T05:24:24;24.10;68.03
68511;SHT31;55512;50.102;19.958;2023-08-20T05:27:06;24.17;67.79
68511;SHT31;55512;50.102;19.958;2023-08-20T05:29:44;24.24;67.73
68511;SHT31;55512;50.102;19.958;2023-08-20T05:32:10;24.30;67.70
68511;SHT31;55512;50.102;19.958;2023-08-20T05:34:36;24.35;67.69
68511;SHT31;55512;50.102;19.958;2023-08-20T05:37:02;24.40;67.57
68511;SHT31;55512;50.102;19.958;2023-08-20T05:39:29;24.43;67.48
68511;SHT31;55512;50.102;19.958;2023-08-20T05:41:55;24.52;67.34
68511;SHT31;55512;50.102;19.958;2023-08-20T05:44:21;24.60;67.29
68511;SHT31;55512;50.102;19.958;2023-08-20T05:46:47;24.67;67.20
68511;SHT31;55512;50.102;19.958;2023-08-20T05:49:14;24.75;67.06
68511;SHT31;55512;50.102;19.958;2023-08-20T05:51:42;24.84;66.77
68511;SHT31;55512;50.102;19.958;2023-08-20T05:54:08;24.91;66.62
68511;SHT31;55512;50.102;19.958;2023-08-20T05:56:34;25.00;66.58
68511;SHT31;55512;50.102;19.958;2023-08-20T05:58:59;25.10;66.36
68511;SHT31;55512;50.102;19.958;2023-08-20T06:01:25;25.19;66.19
68511;SHT31;55512;50.102;19.958;2023-08-20T06:03:50;25.28;66.04
68511;SHT31;55512;50.102;19.958;2023-08-20T06:06:15;25.38;65.87
68511;SHT31;55512;50.102;19.958;2023-08-20T06:08:41;25.49;65.69
68511;SHT31;55512;50.102;19.958;2023-08-20T06:11:07;25.57;65.59
68511;SHT31;55512;50.102;19.958;2023-08-20T06:13:32;25.64;65.44
68511;SHT31;55512;50.102;19.958;2023-08-20T06:15:57;25.73;65.31
68511;SHT31;55512;50.102;19.958;2023-08-20T06:18:23;25.83;65.15
68511;SHT31;55512;50.102;19.958;2023-08-20T06:20:48;25.92;65.01
68511;SHT31;55512;50.102;19.958;2023-08-20T06:23:14;26.00;64.83
68511;SHT31;55512;50.102;19.958;2023-08-20T06:25:39;26.11;64.65
68511;SHT31;55512;50.102;19.958;2023-08-20T06:28:04;26.19;64.54
68511;SHT31;55512;50.102;19.958;2023-08-20T06:30:30;26.27;64.34
68511;SHT31;55512;50.102;19.958;2023-08-20T06:32:55;26.35;64.14
68511;SHT31;55512;50.102;19.958;2023-08-20T06:35:21;26.46;63.96
68511;SHT31;55512;50.102;19.958;2023-08-20T06:37:46;26.55;63.72
68511;SHT31;55512;50.102;19.958;2023-08-20T06:40:12;26.59;63.59
68511;SHT31;55512;50.102;19.958;2023-08-20T06:42:38;26.68;63.47
68511;SHT31;55512;50.102;19.958;2023-08-20T06:45:04;26.77;63.31
68511;SHT31;55512;50.102;19.958;2023-08-20T06:47:31;26.87;63.18
68511;SHT31;55512;50.102;19.958;2023-08-20T06:49:56;26.94;62.95
68511;SHT31;55512;50.102;19.958;2023-08-20T06:52:22;27.03;62.76
68511;SHT31;55512;50.102;19.958;2023-08-20T06:54:47;27.11;62.52
68511;SHT31;55512;50.102;19.958;2023-08-20T06:57:13;27.14;62.45
68511;SHT31;55512;50.102;19.958;2023-08-20T06:59:38;27.19;62.27
68511;SHT31;55512;50.102;19.958;2023-08-20T07:02:04;27.26;62.08
68511;SHT31;55512;50.102;19.958;2023-08-20T07:04:29;27.36;61.83
68511;SHT31;55512;50.102;19.958;2023-08-20T07:06:54;27.45;61.42
68511;SHT31;55512;50.102;19.958;2023-08-20T07:09:20;27.51;61.11
68511;SHT31;55512;50.102;19.958;2023-08-20T07:11:46;27.57;60.87
68511;SHT31;55512;50.102;19.958;2023-08-20T07:14:11;27.66;60.58
68511;SHT31;55512;50.102;19.958;2023-08-20T07:16:37;27.71;60.28
68511;SHT31;55512;50.102;19.958;2023-08-20T07:19:02;27.75;60.14
68511;SHT31;55512;50.102;19.958;2023-08-20T07:21:28;27.78;60.12
68511;SHT31;55512;50.102;19.958;2023-08-20T07:23:53;27.88;60.00
68511;SHT31;55512;50.102;19.958;2023-08-20T07:26:19;27.96;59.82
68511;SHT31;55512;50.102;19.958;2023-08-20T07:28:44;28.06;59.68
68511;SHT31;55512;50.102;19.958;2023-08-20T07:31:22;28.16;59.46
68511;SHT31;55512;50.102;19.958;2023-08-20T07:33:49;28.17;59.09
68511;SHT31;55512;50.102;19.958;2023-08-20T07:36:15;28.21;59.17
68511;SHT31;55512;50.102;19.958;2023-08-20T07:38:42;28.19;59.16
68511;SHT31;55512;50.102;19.958;2023-08-20T07:41:09;28.21;59.01
68511;SHT31;55512;50.102;19.958;2023-08-20T07:43:38;28.23;58.93
68511;SHT31;55512;50.102;19.958;2023-08-20T07:46:05;28.27;58.95
68511;SHT31;55512;50.102;19.958;2023-08-20T07:48:32;28.28;58.93
68511;SHT31;55512;50.102;19.958;2023-08-20T07:50:59;28.33;58.88
68511;SHT31;55512;50.102;19.958;2023-08-20T07:53:25;28.38;58.70
68511;SHT31;55512;50.102;19.958;2023-08-20T07:55:50;28.42;58.56
68511;SHT31;55512;50.102;19.958;2023-08-20T07:58:16;28.45;58.52
68511;SHT31;55512;50.102;19.958;2023-08-20T08:00:42;28.43;58.58
68511;SHT31;55512;50.102;19.958;2023-08-20T08:03:08;28.14;59.34
68511;SHT31;55512;50.102;19.958;2023-08-20T08:05:34;28.11;59.58
68511;SHT31;55512;50.102;19.958;2023-08-20T08:08:01;28.13;59.59
68511;SHT31;55512;50.102;19.958;2023-08-20T08:10:27;28.18;59.48
68511;SHT31;55512;50.102;19.958;2023-08-20T08:12:53;28.21;59.36
68511;SHT31;55512;50.102;19.958;2023-08-20T08:15:19;28.26;59.22
68511;SHT31;55512;50.102;19.958;2023-08-20T08:17:44;28.26;59.12
68511;SHT31;55512;50.102;19.958;2023-08-20T08:20:10;28.27;59.13
68511;SHT31;55512;50.102;19.958;2023-08-20T08:22:35;28.31;59.14
68511;SHT31;55512;50.102;19.958;2023-08-20T08:25:01;28.38;59.05
68511;SHT31;55512;50.102;19.958;2023-08-20T08:27:26;28.41;58.93
68511;SHT31;55512;50.102;19.958;2023-08-20T08:29:52;28.44;58.78
68511;SHT31;55512;50.102;19.958;2023-08-20T08:32:17;28.46;58.55
68511;SHT31;55512;50.102;19.958;2023-08-20T08:34:43;28.50;58.47
68511;SHT31;55512;50.102;19.958;2023-08-20T08:37:08;28.57;58.37
68511;SHT31;55512;50.102;19.958;2023-08-20T08:39:34;28.66;58.27
68511;SHT31;55512;50.102;19.958;2023-08-20T08:42:03;28.74;57.79
68511;SHT31;55512;50.102;19.958;2023-08-20T08:44:33;28.80;57.14
68511;SHT31;55512;50.102;19.958;2023-08-20T08:47:06;28.88;57.12
68511;SHT31;55512;50.102;19.958;2023-08-20T08:49:35;28.96;57.25
68511;SHT31;55512;50.102;19.958;2023-08-20T08:52:01;29.03;57.02
68511;SHT31;55512;50.102;19.958;2023-08-20T08:54:29;29.10;56.62
68511;SHT31;55512;50.102;19.958;2023-08-20T08:56:57;29.17;56.38
68511;SHT31;55512;50.102;19.958;2023-08-20T08:59:22;29.23;55.64
68511;SHT31;55512;50.102;19.958;2023-08-20T09:01:47;29.27;55.45
68511;SHT31;55512;50.102;19.958;2023-08-20T09:04:13;29.33;55.36
68511;SHT31;55512;50.102;19.958;2023-08-20T09:09:12;29.49;54.73
68511;SHT31;55512;50.102;19.958;2023-08-20T09:11:38;29.57;54.60
68511;SHT31;55512;50.102;19.958;2023-08-20T09:14:03;29.64;54.36
68511;SHT31;55512;50.102;19.958;2023-08-20T09:16:29;29.70;54.24
68511;SHT31;55512;50.102;19.958;2023-08-20T09:18:58;29.77;54.20
68511;SHT31;55512;50.102;19.958;2023-08-20T09:21:28;29.83;54.00
68511;SHT31;55512;50.102;19.958;2023-08-20T09:23:54;29.90;53.65
68511;SHT31;55512;50.102;19.958;2023-08-20T09:26:22;30.00;53.33
68511;SHT31;55512;50.102;19.958;2023-08-20T09:28:47;30.16;52.98
68511;SHT31;55512;50.102;19.958;2023-08-20T09:31:13;30.21;53.73
68511;SHT31;55512;50.102;19.958;2023-08-20T09:33:49;30.23;52.94
68511;SHT31;55512;50.102;19.958;2023-08-20T09:36:16;30.21;52.19
68511;SHT31;55512;50.102;19.958;2023-08-20T09:38:43;30.18;52.16
68511;SHT31;55512;50.102;19.958;2023-08-20T09:41:08;30.21;51.86
68511;SHT31;55512;50.102;19.958;2023-08-20T09:43:35;30.23;51.90
68511;SHT31;55512;50.102;19.958;2023-08-20T09:46:04;30.34;51.63
68511;SHT31;55512;50.102;19.958;2023-08-20T09:48:34;30.53;51.20
68511;SHT31;55512;50.102;19.958;2023-08-20T09:51:04;30.65;51.07
68511;SHT31;55512;50.102;19.958;2023-08-20T09:53:44;30.82;50.78
68511;SHT31;55512;50.102;19.958;2023-08-20T09:56:20;30.99;50.49
68511;SHT31;55512;50.102;19.958;2023-08-20T09:58:53;31.20;49.58
68511;SHT31;55512;50.102;19.958;2023-08-20T10:01:22;31.45;48.40
68511;SHT31;55512;50.102;19.958;2023-08-20T10:03:48;31.54;47.85
68511;SHT31;55512;50.102;19.958;2023-08-20T10:06:14;31.60;48.13
68511;SHT31;55512;50.102;19.958;2023-08-20T10:08:39;31.67;48.24
68511;SHT31;55512;50.102;19.958;2023-08-20T10:11:05;31.74;47.74
68511;SHT31;55512;50.102;19.958;2023-08-20T10:13:30;31.81;47.45
68511;SHT31;55512;50.102;19.958;2023-08-20T10:15:57;31.85;47.12
68511;SHT31;55512;50.102;19.958;2023-08-20T10:18:23;31.87;47.25
68511;SHT31;55512;50.102;19.958;2023-08-20T10:20:49;31.93;47.30
68511;SHT31;55512;50.102;19.958;2023-08-20T10:23:17;32.00;46.94
68511;SHT31;55512;50.102;19.958;2023-08-20T10:25:49;32.03;46.44
68511;SHT31;55512;50.102;19.958;2023-08-20T10:28:21;32.00;45.86
68511;SHT31;55512;50.102;19.958;2023-08-20T10:33:36;32.06;45.76
68511;SHT31;55512;50.102;19.958;2023-08-20T10:36:18;32.06;45.87
68511;SHT31;55512;50.102;19.958;2023-08-20T10:38:51;32.04;45.68
68511;SHT31;55512;50.102;19.958;2023-08-20T10:41:27;32.06;45.70
68511;SHT31;55512;50.102;19.958;2023-08-20T10:43:57;32.00;46.08
68511;SHT31;55512;50.102;19.958;2023-08-20T10:46:24;32.01;46.04
68511;SHT31;55512;50.102;19.958;2023-08-20T10:48:57;31.98;46.22
68511;SHT31;55512;50.102;19.958;2023-08-20T10:51:27;32.00;46.28
68511;SHT31;55512;50.102;19.958;2023-08-20T10:56:37;32.08;46.19
68511;SHT31;55512;50.102;19.958;2023-08-20T11:01:49;32.41;45.16
68511;SHT31;55512;50.102;19.958;2023-08-20T11:04:20;32.59;44.71
68511;SHT31;55512;50.102;19.958;2023-08-20T11:06:59;32.77;44.51
68511;SHT31;55512;50.102;19.958;2023-08-20T11:09:26;32.94;43.99
68511;SHT31;55512;50.102;19.958;2023-08-20T11:11:54;33.10;43.68
68511;SHT31;55512;50.102;19.958;2023-08-20T11:14:21;33.32;43.39
68511;SHT31;55512;50.102;19.958;2023-08-20T11:16:47;33.54;43.17
68511;SHT31;55512;50.102;19.958;2023-08-20T11:19:14;33.71;42.80
68511;SHT31;55512;50.102;19.958;2023-08-20T11:21:44;33.87;42.54
68511;SHT31;55512;50.102;19.958;2023-08-20T11:24:10;33.97;42.30
68511;SHT31;55512;50.102;19.958;2023-08-20T11:26:40;34.15;42.09
68511;SHT31;55512;50.102;19.958;2023-08-20T11:29:11;34.36;41.91
68511;SHT31;55512;50.102;19.958;2023-08-20T11:31:39;34.58;41.43
68511;SHT31;55512;50.102;19.958;2023-08-20T11:34:05;34.56;40.91
68511;SHT31;55512;50.102;19.958;2023-08-20T11:36:32;34.62;40.87
68511;SHT31;55512;50.102;19.958;2023-08-20T11:38:58;34.70;40.45
68511;SHT31;55512;50.102;19.958;2023-08-20T11:41:24;34.71;40.23
68511;SHT31;55512;50.102;19.958;2023-08-20T11:43:51;34.62;39.95
68511;SHT31;55512;50.102;19.958;2023-08-20T11:46:19;34.57;40.21
68511;SHT31;55512;50.102;19.958;2023-08-20T11:51:39;34.69;39.92
68511;SHT31;55512;50.102;19.958;2023-08-20T11:54:06;34.82;39.87
68511;SHT31;55512;50.102;19.958;2023-08-20T11:56:33;34.92;39.87
68511;SHT31;55512;50.102;19.958;2023-08-20T11:59:00;34.95;39.58
68511;SHT31;55512;50.102;19.958;2023-08-20T12:01:30;34.99;39.39
68511;SHT31;55512;50.102;19.958;2023-08-20T12:04:03;35.11;39.31
68511;SHT31;55512;50.102;19.958;2023-08-20T12:06:30;35.20;39.17
68511;SHT31;55512;50.102;19.958;2023-08-20T12:08:56;35.26;39.24
68511;SHT31;55512;50.102;19.958;2023-08-20T12:11:29;35.28;39.26
68511;SHT31;55512;50.102;19.958;2023-08-20T12:13:55;35.33;39.54
68511;SHT31;55512;50.102;19.958;2023-08-20T12:16:22;35.45;39.46
68511;SHT31;55512;50.102;19.958;2023-08-20T12:18:51;35.48;39.19
68511;SHT31;55512;50.102;19.958;2023-08-20T12:21:20;35.48;38.74
68511;SHT31;55512;50.102;19.958;2023-08-20T12:23:46;35.56;38.49
68511;SHT31;55512;50.102;19.958;2023-08-20T12:26:11;35.68;38.31
68511;SHT31;55512;50.102;19.958;2023-08-20T12:28:37;35.74;38.14
68511;SHT31;55512;50.102;19.958;2023-08-20T12:31:02;35.74;37.23
68511;SHT31;55512;50.102;19.958;2023-08-20T12:33:28;35.78;37.18
68511;SHT31;55512;50.102;19.958;2023-08-20T12:35:54;35.96;36.29
68511;SHT31;55512;50.102;19.958;2023-08-20T12:38:20;36.14;36.10
68511;SHT31;55512;50.102;19.958;2023-08-20T12:40:46;36.28;36.11
68511;SHT31;55512;50.102;19.958;2023-08-20T12:43:12;36.34;35.59
68511;SHT31;55512;50.102;19.958;2023-08-20T12:45:37;36.21;35.48
68511;SHT31;55512;50.102;19.958;2023-08-20T12:48:03;35.96;35.97
68511;SHT31;55512;50.102;19.958;2023-08-20T12:50:30;35.64;36.58
68511;SHT31;55512;50.102;19.958;2023-08-20T12:52:56;35.35;37.01
68511;SHT31;55512;50.102;19.958;2023-08-20T12:55:21;35.10;37.50
68511;SHT31;55512;50.102;19.958;2023-08-20T13:00:24;34.88;38.07
68511;SHT31;55512;50.102;19.958;2023-08-20T13:02:51;34.87;37.73
68511;SHT31;55512;50.102;19.958;2023-08-20T13:05:19;34.84;37.43
68511;SHT31;55512;50.102;19.958;2023-08-20T13:07:47;34.84;37.47
68511;SHT31;55512;50.102;19.958;2023-08-20T13:10:13;34.84;37.80
68511;SHT31;55512;50.102;19.958;2023-08-20T13:12:40;34.94;37.09
68511;SHT31;55512;50.102;19.958;2023-08-20T13:15:07;35.03;36.91
68511;SHT31;55512;50.102;19.958;2023-08-20T13:17:35;35.07;36.76
68511;SHT31;55512;50.102;19.958;2023-08-20T13:20:02;35.16;36.88
68511;SHT31;55512;50.102;19.958;2023-08-20T13:22:30;35.33;36.32
68511;SHT31;55512;50.102;19.958;2023-08-20T13:24:56;35.36;36.00
68511;SHT31;55512;50.102;19.958;2023-08-20T13:27:21;35.33;36.37
68511;SHT31;55512;50.102;19.958;2023-08-20T13:29:47;35.29;36.36
68511;SHT31;55512;50.102;19.958;2023-08-20T13:32:12;35.30;36.21
68511;SHT31;55512;50.102;19.958;2023-08-20T13:34:37;35.28;36.42
68511;SHT31;55512;50.102;19.958;2023-08-20T13:37:03;35.25;36.69
68511;SHT31;55512;50.102;19.958;2023-08-20T13:39:28;35.25;36.29
68511;SHT31;55512;50.102;19.958;2023-08-20T13:41:54;35.22;36.37
68511;SHT31;55512;50.102;19.958;2023-08-20T13:44:20;35.18;36.23
68511;SHT31;55512;50.102;19.958;2023-08-20T13:46:46;35.19;36.26
68511;SHT31;55512;50.102;19.958;2023-08-20T13:49:11;35.25;36.40
68511;SHT31;55512;50.102;19.958;2023-08-20T13:51:36;35.32;35.73
68511;SHT31;55512;50.102;19.958;2023-08-20T13:54:02;35.51;35.56
68511;SHT31;55512;50.102;19.958;2023-08-20T13:56:28;35.55;35.66
68511;SHT31;55512;50.102;19.958;2023-08-20T13:58:53;35.58;35.62
68511;SHT31;55512;50.102;19.958;2023-08-20T14:01:19;35.52;35.80
68511;SHT31;55512;50.102;19.958;2023-08-20T14:03:44;35.34;36.04
68511;SHT31;55512;50.102;19.958;2023-08-20T14:06:10;35.30;36.09
68511;SHT31;55512;50.102;19.958;2023-08-20T14:08:35;35.36;35.80
68511;SHT31;55512;50.102;19.958;2023-08-20T14:11:01;35.42;35.54
68511;SHT31;55512;50.102;19.958;2023-08-20T14:13:26;35.52;34.97
68511;SHT31;55512;50.102;19.958;2023-08-20T14:15:52;35.56;34.83
68511;SHT31;55512;50.102;19.958;2023-08-20T14:18:17;35.60;34.85
68511;SHT31;55512;50.102;19.958;2023-08-20T14:20:42;35.75;34.52
68511;SHT31;55512;50.102;19.958;2023-08-20T14:23:08;35.90;34.49
68511;SHT31;55512;50.102;19.958;2023-08-20T14:25:33;36.08;33.93
68511;SHT31;55512;50.102;19.958;2023-08-20T14:27:59;36.43;33.47
68511;SHT31;55512;50.102;19.958;2023-08-20T14:30:25;36.73;33.18
68511;SHT31;55512;50.102;19.958;2023-08-20T14:32:52;37.41;32.63
68511;SHT31;55512;50.102;19.958;2023-08-20T14:35:18;38.91;30.87
68511;SHT31;55512;50.102;19.958;2023-08-20T14:37:45;40.84;29.44
68511;SHT31;55512;50.102;19.958;2023-08-20T14:40:10;42.85;27.56
68511;SHT31;55512;50.102;19.958;2023-08-20T14:42:37;44.35;26.01
68511;SHT31;55512;50.102;19.958;2023-08-20T14:45:03;45.80;25.09
68511;SHT31;55512;50.102;19.958;2023-08-20T14:47:29;47.21;23.69
68511;SHT31;55512;50.102;19.958;2023-08-20T14:49:56;48.28;22.46
68511;SHT31;55512;50.102;19.958;2023-08-20T14:52:22;49.32;21.71
68511;SHT31;55512;50.102;19.958;2023-08-20T14:54:47;50.18;21.27
68511;SHT31;55512;50.102;19.958;2023-08-20T14:57:12;50.97;20.60
68511;SHT31;55512;50.102;19.958;2023-08-20T14:59:40;51.77;19.66
68511;SHT31;55512;50.102;19.958;2023-08-20T15:02:05;52.30;19.34
68511;SHT31;55512;50.102;19.958;2023-08-20T15:04:31;52.89;19.11
68511;SHT31;55512;50.102;19.958;2023-08-20T15:06:56;52.87;18.86
68511;SHT31;55512;50.102;19.958;2023-08-20T15:09:21;51.27;19.06
68511;SHT31;55512;50.102;19.958;2023-08-20T15:11:47;49.65;19.56
68511;SHT31;55512;50.102;19.958;2023-08-20T15:14:12;47.75;20.47
68511;SHT31;55512;50.102;19.958;2023-08-20T15:16:38;47.00;21.16
68511;SHT31;55512;50.102;19.958;2023-08-20T15:19:03;48.24;20.48
68511;SHT31;55512;50.102;19.958;2023-08-20T15:21:29;49.43;19.96
68511;SHT31;55512;50.102;19.958;2023-08-20T15:23:54;50.46;19.32
68511;SHT31;55512;50.102;19.958;2023-08-20T15:26:19;51.47;18.84
68511;SHT31;55512;50.102;19.958;2023-08-20T15:28:45;52.19;18.12
68511;SHT31;55512;50.102;19.958;2023-08-20T15:31:10;52.45;17.97
68511;SHT31;55512;50.102;19.958;2023-08-20T15:33:36;52.89;17.67
68511;SHT31;55512;50.102;19.958;2023-08-20T15:36:01;53.30;17.58
68511;SHT31;55512;50.102;19.958;2023-08-20T15:38:26;53.80;17.17